createdAt,value
2019-03-11T00:00:45.085Z,100533.34
2019-03-11T00:03:06.545Z,100494.87
2019-03-11T00:05:27.788Z,100536.75
2019-03-11T00:07:49.102Z,100486.66
2019-03-11T00:10:10.418Z,100488.56
2019-03-11T00:12:31.700Z,100502.88
2019-03-11T00:14:52.992Z,100542.16
2019-03-11T00:17:14.245Z,100548.65
2019-03-11T00:19:35.487Z,100503.05
2019-03-11T00:21:56.789Z,100549.09
2019-03-11T00:24:18.033Z,100553.25
2019-03-11T00:26:39.292Z,100502.08
2019-03-11T00:29:00.577Z,100562.17
2019-03-11T00:31:21.824Z,100562.55
2019-03-11T00:33:43.071Z,100569.37
2019-03-11T00:36:04.380Z,100531.39
2019-03-11T00:38:25.612Z,100576.89
2019-03-11T00:40:46.874Z,100535.34
2019-03-11T00:43:08.143Z,100543.08
2019-03-11T00:45:29.393Z,100598.17
2019-03-11T00:48:01.073Z,100595.68
2019-03-11T00:50:33.723Z,100565.31
2019-03-11T00:52:48.973Z,100599.35
2019-03-11T00:55:11.065Z,100606.77
2019-03-11T00:57:32.308Z,100604.45
2019-03-11T00:59:53.586Z,100603.45
2019-03-11T01:02:14.827Z,100603.41
2019-03-11T01:04:36.169Z,100605.18
2019-03-11T01:06:57.452Z,100612.02
2019-03-11T01:09:18.692Z,100605.83
2019-03-11T01:11:39.935Z,100564.55
2019-03-11T01:14:01.225Z,100602.97
2019-03-11T01:16:22.467Z,100606.48
2019-03-11T01:18:43.753Z,100606.48
2019-03-11T01:21:05.136Z,100561.58
2019-03-11T01:23:26.406Z,100607.63
2019-03-11T01:25:47.660Z,100612.39
2019-03-11T01:28:08.924Z,100563.25
2019-03-11T01:30:30.206Z,100611.53
2019-03-11T01:32:51.460Z,100610.45
2019-03-11T01:35:12.816Z,100559.36
2019-03-11T01:37:34.196Z,100602.92
2019-03-11T01:39:55.725Z,100602.44
2019-03-11T01:42:16.963Z,100556.99
2019-03-11T01:44:38.230Z,100598.42
2019-03-11T01:46:59.547Z,100602.49
2019-03-11T01:49:20.774Z,100610.50
2019-03-11T01:51:42.035Z,100553.13
2019-03-11T01:53:56.621Z,100602.77
2019-03-11T01:56:17.854Z,100581.23
2019-03-11T01:58:39.096Z,100557.84
2019-03-11T02:01:00.384Z,100599.29
2019-03-11T02:03:21.915Z,100600.55
2019-03-11T02:05:43.163Z,100561.02
2019-03-11T02:08:04.406Z,100599.99
2019-03-11T02:10:25.700Z,100601.57
2019-03-11T02:12:46.957Z,100602.32
2019-03-11T02:15:31.335Z,100549.19
2019-03-11T02:17:52.583Z,100565.58
2019-03-11T02:20:33.742Z,100600.42
2019-03-11T02:22:55.004Z,100602.31
2019-03-11T02:25:16.363Z,100563.12
2019-03-11T02:27:37.644Z,100607.39
2019-03-11T02:29:58.890Z,100614.49
2019-03-11T02:32:20.135Z,100558.63
2019-03-11T02:34:41.417Z,100560.36
2019-03-11T02:37:02.664Z,100606.41
2019-03-11T02:39:23.907Z,100611.12
2019-03-11T02:41:45.300Z,100557.56
2019-03-11T02:44:06.592Z,100599.63
2019-03-11T02:46:27.833Z,100605.84
2019-03-11T02:48:49.079Z,100555.46
2019-03-11T02:51:10.360Z,100595.95
2019-03-11T02:53:31.598Z,100600.34
2019-03-11T02:55:46.383Z,100594.38
2019-03-11T02:58:07.653Z,100604.55
2019-03-11T03:00:28.974Z,100597.47
2019-03-11T03:03:10.170Z,100558.61
2019-03-11T03:05:51.538Z,100549.47
2019-03-11T03:08:13.229Z,100600.41
2019-03-11T03:10:34.962Z,100596.67
2019-03-11T03:12:56.394Z,100547.64
2019-03-11T03:15:17.682Z,100549.63
2019-03-11T03:17:38.959Z,100597.88
2019-03-11T03:20:00.474Z,100593.98
2019-03-11T03:22:21.815Z,100550.84
2019-03-11T03:24:43.146Z,100586.04
2019-03-11T03:27:04.396Z,100587.92
2019-03-11T03:29:25.686Z,100587.05
2019-03-11T03:31:46.971Z,100528.03
2019-03-11T03:34:08.215Z,100574.78
2019-03-11T03:36:29.464Z,100577.59
2019-03-11T03:38:50.796Z,100578.41
2019-03-11T03:41:12.027Z,100573.42
2019-03-11T03:43:33.273Z,100531.11
2019-03-11T03:45:54.564Z,100568.08
2019-03-11T03:48:16.056Z,100565.79
2019-03-11T03:53:40.661Z,100558.16
2019-03-11T03:56:01.929Z,100523.86
2019-03-11T03:58:23.171Z,100512.94
2019-03-11T04:00:44.490Z,100558.16
2019-03-11T04:03:05.691Z,100558.23
2019-03-11T04:05:26.993Z,100552.55
2019-03-11T04:07:48.342Z,100520.75
2019-03-11T04:13:19.751Z,100552.81
2019-03-11T04:16:01.051Z,100555.13
2019-03-11T04:18:55.759Z,100554.47
2019-03-11T04:21:17.574Z,100554.91
2019-03-11T04:23:40.793Z,100510.95
2019-03-11T04:26:02.075Z,100555.59
2019-03-11T04:28:23.556Z,100556.08
2019-03-11T04:31:06.581Z,100556.11
2019-03-11T04:33:28.011Z,100562.60
2019-03-11T04:35:49.283Z,100510.20
2019-03-11T04:38:10.542Z,100517.61
2019-03-11T04:40:31.853Z,100566.12
2019-03-11T04:42:33.335Z,100573.26
2019-03-11T04:44:54.596Z,100535.02
2019-03-11T04:47:15.893Z,100525.65
2019-03-11T04:49:37.276Z,100565.07
2019-03-11T04:51:58.535Z,100570.05
2019-03-11T04:54:19.842Z,100570.64
2019-03-11T04:56:41.096Z,100562.80
2019-03-11T04:59:22.311Z,100566.37
2019-03-11T05:01:43.548Z,100509.27
2019-03-11T05:04:04.797Z,100566.76
2019-03-11T05:06:26.091Z,100560.76
2019-03-11T05:08:47.346Z,100514.68
2019-03-11T05:11:08.684Z,100555.55
2019-03-11T05:13:29.990Z,100557.83
2019-03-11T05:15:51.222Z,100510.84
2019-03-11T05:18:05.595Z,100558.27
2019-03-11T05:20:26.890Z,100565.24
2019-03-11T05:22:48.147Z,100568.03
2019-03-11T05:25:29.339Z,100531.04
2019-03-11T05:27:50.597Z,100564.64
2019-03-11T05:30:31.961Z,100527.48
2019-03-11T05:32:53.219Z,100571.03
2019-03-11T05:35:14.787Z,100537.73
2019-03-11T05:37:36.064Z,100568.62
2019-03-11T05:39:57.334Z,100575.06
2019-03-11T05:42:18.638Z,100530.62
2019-03-11T05:44:39.895Z,100571.70
2019-03-11T05:47:01.207Z,100540.38
2019-03-11T05:49:22.453Z,100573.70
2019-03-11T05:51:43.692Z,100527.17
2019-03-11T05:54:05.013Z,100577.82
2019-03-11T05:56:26.306Z,100570.03
2019-03-11T05:58:47.591Z,100576.20
2019-03-11T06:01:08.850Z,100571.64
2019-03-11T06:03:30.177Z,100537.73
2019-03-11T06:05:51.434Z,100574.98
2019-03-11T06:08:34.512Z,100575.26
2019-03-11T06:10:55.802Z,100529.30
2019-03-11T06:13:17.107Z,100577.69
2019-03-11T06:15:18.495Z,100578.12
2019-03-11T06:17:32.927Z,100551.19
2019-03-11T06:20:14.114Z,100576.45
2019-03-11T06:22:35.380Z,100538.27
2019-03-11T06:24:56.675Z,100581.75
2019-03-11T06:27:17.982Z,100538.05
2019-03-11T06:29:39.239Z,100583.75
2019-03-11T06:32:00.501Z,100578.02
2019-03-11T06:34:21.783Z,100537.89
2019-03-11T06:36:43.116Z,100536.20
2019-03-11T06:38:44.473Z,100587.00
2019-03-11T06:41:05.733Z,100540.78
2019-03-11T06:43:27.131Z,100583.69
2019-03-11T06:45:48.399Z,100541.58
2019-03-11T06:48:09.758Z,100585.61
2019-03-11T06:50:31.040Z,100549.47
2019-03-11T06:52:52.297Z,100582.23
2019-03-11T06:55:13.551Z,100583.02
2019-03-11T06:57:35.042Z,100590.55
2019-03-11T06:59:49.828Z,100546.17
2019-03-11T07:02:11.097Z,100542.24
2019-03-11T07:04:32.418Z,100589.08
2019-03-11T07:06:39.595Z,100593.67
2019-03-11T07:08:40.988Z,100591.33
2019-03-11T07:11:02.289Z,100558.04
2019-03-11T07:13:23.546Z,100547.78
2019-03-11T07:15:44.842Z,100587.06
2019-03-11T07:18:06.213Z,100591.67
2019-03-11T07:20:11.627Z,100580.44
2019-03-11T07:22:14.628Z,100574.38
2019-03-11T07:24:16.637Z,100580.58
2019-03-11T07:26:18.118Z,100584.11
2019-03-11T07:28:19.564Z,100589.37
2019-03-11T07:30:21.034Z,100583.52
2019-03-11T07:32:22.459Z,100585.61
2019-03-11T07:34:24.062Z,100585.92
2019-03-11T07:36:25.427Z,100583.72
2019-03-11T07:38:26.872Z,100587.42
2019-03-11T07:40:30.290Z,100589.28
2019-03-11T07:42:31.769Z,100593.78
2019-03-11T07:44:33.207Z,100588.53
2019-03-11T07:46:34.845Z,100591.94
2019-03-11T07:48:36.296Z,100597.41
2019-03-11T07:50:37.771Z,100596.02
2019-03-11T07:52:39.252Z,100598.29
2019-03-11T07:54:40.710Z,100602.30
2019-03-11T07:56:42.174Z,100602.45
2019-03-11T07:58:43.597Z,100599.67
2019-03-11T08:00:53.440Z,100600.11
2019-03-11T08:02:48.446Z,100599.94
2019-03-11T08:04:49.895Z,100600.73
2019-03-11T08:06:51.317Z,100599.41
2019-03-11T08:08:52.704Z,100606.12
2019-03-11T08:10:54.119Z,100606.55
2019-03-11T08:12:55.561Z,100598.60
2019-03-11T08:14:56.952Z,100598.59
2019-03-11T08:16:58.385Z,100596.63
2019-03-11T08:18:59.789Z,100602.19
2019-03-11T08:21:01.170Z,100607.73
2019-03-11T08:23:02.660Z,100606.34
2019-03-11T08:25:08.040Z,100606.02
2019-03-11T08:27:09.467Z,100607.28
2019-03-11T08:29:10.924Z,100607.80
2019-03-11T08:31:12.291Z,100605.52
2019-03-11T08:33:13.711Z,100617.64
2019-03-11T08:35:15.287Z,100605.88
2019-03-11T08:37:16.915Z,100609.83
2019-03-11T08:39:18.317Z,100609.13
2019-03-11T08:41:19.722Z,100609.25
2019-03-11T08:43:21.199Z,100604.17
2019-03-11T08:45:22.541Z,100606.51
2019-03-11T08:47:23.915Z,100611.66
2019-03-11T08:49:25.343Z,100613.03
2019-03-11T08:51:26.719Z,100616.05
2019-03-11T08:53:28.092Z,100619.91
2019-03-11T08:55:29.521Z,100617.28
2019-03-11T08:57:31.024Z,100612.48
2019-03-11T08:59:32.386Z,100616.59
2019-03-11T09:01:33.802Z,100613.46
2019-03-11T09:03:35.638Z,100616.16
2019-03-11T09:05:37.009Z,100612.06
2019-03-11T09:07:38.418Z,100619.73
2019-03-11T09:09:39.814Z,100632.34
2019-03-11T09:11:41.234Z,100618.48
2019-03-11T09:13:42.605Z,100614.50
2019-03-11T09:15:44.402Z,100615.58
2019-03-11T09:17:46.164Z,100621.27
2019-03-11T09:19:47.542Z,100623.30
2019-03-11T09:21:48.948Z,100615.56
2019-03-11T09:23:50.349Z,100628.50
2019-03-11T09:25:51.731Z,100628.68
2019-03-11T09:27:53.161Z,100628.18
2019-03-11T09:29:54.523Z,100623.70
2019-03-11T09:31:55.898Z,100625.92
2019-03-11T09:33:57.300Z,100623.30
2019-03-11T09:35:59.092Z,100630.94
2019-03-11T09:38:00.478Z,100628.20
2019-03-11T09:40:02.439Z,100628.20
2019-03-11T09:42:03.823Z,100627.13
2019-03-11T09:44:05.203Z,100627.87
2019-03-11T09:46:06.721Z,100626.73
2019-03-11T09:48:08.100Z,100628.09
2019-03-11T09:50:14.262Z,100633.66
2019-03-11T09:52:15.676Z,100634.71
2019-03-11T09:54:17.043Z,100637.90
2019-03-11T09:56:18.445Z,100633.64
2019-03-11T09:58:19.897Z,100633.17
2019-03-11T10:00:29.820Z,100646.44
2019-03-11T10:02:31.186Z,100638.64
2019-03-11T10:04:32.613Z,100642.97
2019-03-11T10:06:34.013Z,100645.23
2019-03-11T10:08:35.432Z,100635.15
2019-03-11T10:10:36.877Z,100636.02
2019-03-11T10:12:38.347Z,100632.42
2019-03-11T10:14:39.736Z,100637.63
2019-03-11T10:16:41.112Z,100628.94
2019-03-11T10:18:42.630Z,100624.17
2019-03-11T10:20:44.001Z,100628.73
2019-03-11T10:22:45.528Z,100624.41
2019-03-11T10:24:46.928Z,100620.02
2019-03-11T10:26:48.319Z,100615.16
2019-03-11T10:28:49.720Z,100617.36
2019-03-11T10:30:51.161Z,100619.84
2019-03-11T10:32:52.559Z,100612.73
2019-03-11T10:34:53.957Z,100618.03
2019-03-11T10:36:55.358Z,100624.14
2019-03-11T10:38:56.759Z,100618.72
2019-03-11T10:40:58.153Z,100612.80
2019-03-11T10:42:59.527Z,100620.64
2019-03-11T10:45:00.912Z,100617.77
2019-03-11T10:47:02.553Z,100613.05
2019-03-11T10:49:03.973Z,100627.17
2019-03-11T10:51:05.382Z,100629.98
2019-03-11T10:53:06.810Z,100648.48
2019-03-11T10:55:16.377Z,100639.98
2019-03-11T10:57:17.802Z,100646.22
2019-03-11T10:59:19.364Z,100644.23
2019-03-11T11:01:20.816Z,100646.90
2019-03-11T11:03:22.198Z,100653.19
2019-03-11T11:05:23.589Z,100649.53
2019-03-11T11:07:24.977Z,100644.16
2019-03-11T11:09:26.570Z,100647.42
2019-03-11T11:11:27.945Z,100641.23
2019-03-11T11:13:29.319Z,100646.52
2019-03-11T11:15:32.354Z,100643.16
2019-03-11T11:17:33.747Z,100639.16
2019-03-11T11:19:35.181Z,100638.94
2019-03-11T11:21:36.601Z,100630.80
2019-03-11T11:23:38.009Z,100645.91
2019-03-11T11:25:39.412Z,100639.12
2019-03-11T11:27:40.895Z,100646.30
2019-03-11T11:29:42.597Z,100643.89
2019-03-11T11:31:44.028Z,100638.97
2019-03-11T11:33:45.442Z,100638.80
2019-03-11T11:35:46.872Z,100635.69
2019-03-11T11:37:48.370Z,100643.80
2019-03-11T11:39:49.776Z,100638.14
2019-03-11T11:41:51.209Z,100641.69
2019-03-11T11:43:52.629Z,100642.51
2019-03-11T11:45:54.868Z,100642.69
2019-03-11T11:47:56.317Z,100655.22
2019-03-11T11:49:57.704Z,100638.54
2019-03-11T11:51:59.061Z,100652.30
2019-03-11T11:54:00.496Z,100647.92
2019-03-11T11:56:01.863Z,100650.45
2019-03-11T11:58:03.396Z,100659.55
2019-03-11T12:00:10.917Z,100657.95
2019-03-11T12:02:12.310Z,100661.19
2019-03-11T12:04:14.035Z,100658.36
2019-03-11T12:06:15.424Z,100667.08
2019-03-11T12:08:16.784Z,100672.87
2019-03-11T12:10:22.308Z,100688.59
2019-03-11T12:12:23.679Z,100681.02
2019-03-11T12:14:25.157Z,100671.31
2019-03-11T12:16:26.594Z,100682.58
2019-03-11T12:18:27.965Z,100696.34
2019-03-11T12:20:30.053Z,100679.92
2019-03-11T12:22:31.481Z,100685.63
2019-03-11T12:24:32.857Z,100677.02
2019-03-11T12:26:35.136Z,100673.50
2019-03-11T12:28:36.583Z,100679.88
2019-03-11T12:30:38.276Z,100684.53
2019-03-11T12:32:39.632Z,100680.59
2019-03-11T12:34:41.079Z,100681.41
2019-03-11T12:36:42.471Z,100686.88
2019-03-11T12:38:43.890Z,100685.58
2019-03-11T12:40:45.294Z,100680.44
2019-03-11T12:42:46.781Z,100673.17
2019-03-11T12:44:48.143Z,100669.56
2019-03-11T12:46:49.566Z,100670.84
2019-03-11T12:48:50.946Z,100666.84
2019-03-11T12:50:52.345Z,100670.00
2019-03-11T12:52:53.704Z,100666.61
2019-03-11T12:54:55.096Z,100670.24
2019-03-11T12:56:56.493Z,100667.11
2019-03-11T12:58:57.888Z,100682.92
2019-03-11T13:00:59.257Z,100667.92
2019-03-11T13:03:00.680Z,100673.95
2019-03-11T13:05:04.858Z,100678.19
2019-03-11T13:07:06.235Z,100680.59
2019-03-11T13:09:07.829Z,100688.64
2019-03-11T13:11:09.192Z,100693.05
2019-03-11T13:13:10.567Z,100693.88
2019-03-11T13:15:13.565Z,100699.83
2019-03-11T13:17:14.991Z,100690.47
2019-03-11T13:19:16.373Z,100698.92
2019-03-11T13:21:22.646Z,100693.70
2019-03-11T13:23:24.059Z,100695.20
2019-03-11T13:25:25.448Z,100696.16
2019-03-11T13:27:26.917Z,100695.91
2019-03-11T13:29:28.283Z,100704.98
2019-03-11T13:31:29.691Z,100710.55
2019-03-11T13:33:31.357Z,100714.84
2019-03-11T13:35:32.732Z,100713.17
2019-03-11T13:37:34.210Z,100720.33
2019-03-11T13:39:35.651Z,100705.56
2019-03-11T13:41:37.064Z,100709.17
2019-03-11T13:43:38.539Z,100713.29
2019-03-11T13:45:39.997Z,100722.19
2019-03-11T13:47:41.451Z,100718.20
2019-03-11T13:49:42.815Z,100715.33
2019-03-11T13:51:44.333Z,100723.41
2019-03-11T13:53:45.805Z,100710.74
2019-03-11T13:55:47.183Z,100723.31
2019-03-11T13:57:48.711Z,100722.90
2019-03-11T13:59:50.089Z,100721.89
2019-03-11T14:01:51.458Z,100723.17
2019-03-11T14:03:52.878Z,100735.99
2019-03-11T14:05:54.366Z,100739.38
2019-03-11T14:07:55.748Z,100739.81
2019-03-11T14:09:57.143Z,100746.90
2019-03-11T14:11:58.640Z,100749.59
2019-03-11T14:14:00.015Z,100744.97
2019-03-11T14:16:01.465Z,100748.02
2019-03-11T14:18:02.846Z,100748.17
2019-03-11T14:20:08.827Z,100744.67
2019-03-11T14:22:10.230Z,100748.75
2019-03-11T14:24:11.616Z,100745.90
2019-03-11T14:26:13.165Z,100755.95
2019-03-11T14:28:14.743Z,100763.30
2019-03-11T14:30:21.028Z,100753.84
2019-03-11T14:32:23.168Z,100746.97
2019-03-11T14:34:24.710Z,100751.06
2019-03-11T14:36:26.080Z,100754.30
2019-03-11T14:38:27.432Z,100756.82
2019-03-11T14:40:28.841Z,100754.05
2019-03-11T14:42:30.236Z,100766.45
2019-03-11T14:44:31.597Z,100767.76
2019-03-11T14:46:33.041Z,100766.70
2019-03-11T14:48:34.412Z,100763.46
2019-03-11T14:50:36.178Z,100774.18
2019-03-11T14:52:37.767Z,100786.66
2019-03-11T14:54:39.624Z,100794.59
2019-03-11T14:56:41.023Z,100792.63
2019-03-11T14:58:42.448Z,100805.80
2019-03-11T15:00:43.864Z,100797.89
2019-03-11T15:02:45.497Z,100806.89
2019-03-11T15:04:46.854Z,100797.14
2019-03-11T15:06:48.234Z,100807.52
2019-03-11T15:08:49.635Z,100800.86
2019-03-11T15:10:51.016Z,100803.25
2019-03-11T15:12:52.387Z,100809.92
2019-03-11T15:14:53.808Z,100807.41
2019-03-11T15:16:55.192Z,100809.33
2019-03-11T15:18:56.575Z,100808.90
2019-03-11T15:20:57.969Z,100809.81
2019-03-11T15:23:06.201Z,100805.30
2019-03-11T15:25:07.085Z,100802.72
2019-03-11T15:27:08.489Z,100804.22
2019-03-11T15:29:09.886Z,100803.58
2019-03-11T15:31:11.271Z,100810.11
2019-03-11T15:33:12.692Z,100805.46
2019-03-11T15:35:14.090Z,100801.17
2019-03-11T15:37:15.484Z,100805.70
2019-03-11T15:39:16.941Z,100802.41
2019-03-11T15:41:18.299Z,100812.64
2019-03-11T15:43:19.822Z,100810.00
2019-03-11T15:45:21.204Z,100820.37
2019-03-11T15:47:22.575Z,100820.55
2019-03-11T15:49:23.983Z,100824.02
2019-03-11T15:51:36.002Z,100822.14
2019-03-11T15:53:28.656Z,100822.53
2019-03-11T15:55:30.411Z,100826.12
2019-03-11T15:57:38.977Z,100822.88
2019-03-11T15:59:35.065Z,100819.51
2019-03-11T16:01:36.459Z,100827.92
2019-03-11T16:03:37.839Z,100825.89
2019-03-11T16:05:39.241Z,100828.93
2019-03-11T16:07:40.619Z,100825.05
2019-03-11T16:09:41.985Z,100830.13
2019-03-11T16:11:43.429Z,100828.52
2019-03-11T16:13:44.787Z,100838.54
2019-03-11T16:15:46.172Z,100838.70
2019-03-11T16:17:47.702Z,100849.95
2019-03-11T16:19:49.064Z,100846.28
2019-03-11T16:21:50.463Z,100850.30
2019-03-11T16:23:51.887Z,100846.70
2019-03-11T16:25:53.275Z,100848.92
2019-03-11T16:27:54.639Z,100853.05
2019-03-11T16:29:56.019Z,100861.38
2019-03-11T16:31:57.413Z,100860.39
2019-03-11T16:33:58.770Z,100856.83
2019-03-11T16:36:00.145Z,100863.01
2019-03-11T16:38:01.578Z,100861.14
2019-03-11T16:40:10.591Z,100867.75
2019-03-11T16:42:11.961Z,100867.73
2019-03-11T16:44:13.370Z,100879.84
2019-03-11T16:46:14.737Z,100883.63
2019-03-11T16:48:16.149Z,100882.31
2019-03-11T16:50:22.756Z,100888.45
2019-03-11T16:52:24.425Z,100893.86
2019-03-11T16:54:25.796Z,100895.86
2019-03-11T16:56:27.460Z,100899.45
2019-03-11T16:58:28.877Z,100896.49
2019-03-11T17:00:32.136Z,100905.40
2019-03-11T17:02:33.549Z,100906.07
2019-03-11T17:04:35.010Z,100905.74
2019-03-11T17:06:36.327Z,100914.19
2019-03-11T17:08:37.685Z,100916.07
2019-03-11T17:10:39.083Z,100919.28
2019-03-11T17:12:40.447Z,100916.95
2019-03-11T17:14:41.809Z,100921.70
2019-03-11T17:16:43.405Z,100919.66
2019-03-11T17:18:44.779Z,100921.05
2019-03-11T17:20:46.147Z,100931.97
2019-03-11T17:22:47.792Z,100934.70
2019-03-11T17:24:49.142Z,100940.28
2019-03-11T17:26:50.518Z,100941.30
2019-03-11T17:28:51.938Z,100947.48
2019-03-11T17:30:53.321Z,100949.63
2019-03-11T17:32:54.669Z,100957.89
2019-03-11T17:34:56.082Z,100959.10
2019-03-11T17:36:57.455Z,100969.22
2019-03-11T17:38:58.949Z,100967.80
2019-03-11T17:41:00.327Z,100972.89
2019-03-11T17:43:01.764Z,100977.95
2019-03-11T17:45:07.718Z,100982.23
2019-03-11T17:47:09.128Z,100989.36
2019-03-11T17:49:10.506Z,100989.84
2019-03-11T17:51:12.021Z,100993.34
2019-03-11T17:53:19.975Z,100992.81
2019-03-11T17:55:17.858Z,100995.87
2019-03-11T17:57:19.563Z,100998.91
2019-03-11T17:59:20.916Z,101003.55
2019-03-11T18:01:22.261Z,101009.37
2019-03-11T18:03:23.790Z,101008.55
2019-03-11T18:05:25.320Z,101012.52
2019-03-11T18:07:26.791Z,101014.15
2019-03-11T18:09:28.287Z,101018.56
2019-03-11T18:11:29.668Z,101021.00
2019-03-11T18:13:31.031Z,101022.26
2019-03-11T18:15:32.558Z,101021.14
2019-03-11T18:17:33.954Z,101019.69
2019-03-11T18:19:35.326Z,101026.00
2019-03-11T18:21:36.799Z,101026.21
2019-03-11T18:23:38.299Z,101031.59
2019-03-11T18:25:39.684Z,101033.00
2019-03-11T18:27:41.242Z,101040.44
2019-03-11T18:29:42.690Z,101041.92
2019-03-11T18:31:44.052Z,101055.73
2019-03-11T18:33:45.436Z,101060.45
2019-03-11T18:35:46.904Z,101061.93
2019-03-11T18:37:48.282Z,101068.16
2019-03-11T18:39:49.614Z,101073.10
2019-03-11T18:41:51.057Z,101072.41
2019-03-11T18:43:52.426Z,101074.04
2019-03-11T18:45:53.824Z,101071.16
2019-03-11T18:47:55.205Z,101077.22
2019-03-11T18:49:56.576Z,101077.00
2019-03-11T18:51:57.984Z,101083.56
2019-03-11T18:53:59.488Z,101086.53
2019-03-11T18:56:00.940Z,101086.65
2019-03-11T18:58:02.464Z,101094.34
2019-03-11T19:00:14.936Z,101097.82
2019-03-11T19:02:16.321Z,101101.77
2019-03-11T19:04:17.779Z,101101.47
2019-03-11T19:06:19.226Z,101104.13
2019-03-11T19:08:20.635Z,101107.30
2019-03-11T19:10:22.024Z,101105.17
2019-03-11T19:12:23.725Z,101107.34
2019-03-11T19:14:25.115Z,101108.08
2019-03-11T19:16:26.488Z,101109.11
2019-03-11T19:18:27.893Z,101113.08
2019-03-11T19:20:29.293Z,101112.59
2019-03-11T19:22:31.051Z,101128.98
2019-03-11T19:24:32.557Z,101129.03
2019-03-11T19:26:34.164Z,101123.54
2019-03-11T19:28:35.621Z,101139.17
2019-03-11T19:30:37.051Z,101135.27
2019-03-11T19:32:38.543Z,101142.48
2019-03-11T19:34:39.984Z,101142.33
2019-03-11T19:36:41.469Z,101143.72
2019-03-11T19:38:42.906Z,101150.67
2019-03-11T19:40:44.289Z,101153.61
2019-03-11T19:42:45.943Z,101147.30
2019-03-11T19:44:47.641Z,101150.93
2019-03-11T19:46:49.054Z,101154.89
2019-03-11T19:48:50.422Z,101155.47
2019-03-11T19:50:51.882Z,101155.22
2019-03-11T19:52:59.169Z,101165.15
2019-03-11T19:54:56.569Z,101164.66
2019-03-11T19:56:58.051Z,101169.86
2019-03-11T19:58:59.814Z,101179.09
2019-03-11T20:01:01.387Z,101183.27
2019-03-11T20:03:02.915Z,101192.02
2019-03-11T20:05:08.355Z,101186.31
2019-03-11T20:07:09.807Z,101181.22
2019-03-11T20:09:12.594Z,101179.50
2019-03-11T20:11:14.044Z,101180.94
2019-03-11T20:13:15.437Z,101184.66
2019-03-11T20:15:17.141Z,101190.96
2019-03-11T20:17:18.599Z,101192.55
2019-03-11T20:19:20.135Z,101191.45
2019-03-11T20:21:23.908Z,101195.73
2019-03-11T20:23:25.402Z,101200.13
2019-03-11T20:25:32.776Z,101207.52
2019-03-11T20:27:34.319Z,101220.91
2019-03-11T20:29:35.909Z,101221.62
2019-03-11T20:31:37.325Z,101227.11
2019-03-11T20:33:38.778Z,101234.55
2019-03-11T20:35:40.125Z,101235.73
2019-03-11T20:37:41.533Z,101238.67
2019-03-11T20:39:42.991Z,101246.11
2019-03-11T20:41:44.456Z,101248.31
2019-03-11T20:43:45.969Z,101248.03
2019-03-11T20:45:47.283Z,101241.77
2019-03-11T20:47:48.863Z,101249.28
2019-03-11T20:49:50.244Z,101246.23
2019-03-11T20:51:51.766Z,101251.73
2019-03-11T20:53:53.215Z,101258.97
2019-03-11T20:55:54.754Z,101266.02
2019-03-11T20:57:56.179Z,101273.51
2019-03-11T20:59:57.579Z,101280.35
2019-03-11T21:01:58.966Z,101281.89
2019-03-11T21:04:00.328Z,101287.55
2019-03-11T21:06:05.806Z,101289.75
2019-03-11T21:08:07.251Z,101294.80
2019-03-11T21:10:12.466Z,101301.48
2019-03-11T21:12:13.900Z,101309.01
2019-03-11T21:14:15.401Z,101313.73
2019-03-11T21:16:16.820Z,101320.16
2019-03-11T21:18:18.318Z,101325.94
2019-03-11T21:20:19.737Z,101327.20
2019-03-11T21:22:21.059Z,101325.77
2019-03-11T21:24:22.652Z,101329.11
2019-03-11T21:26:24.203Z,101322.18
2019-03-11T21:28:25.614Z,101329.27
2019-03-11T21:30:27.159Z,101328.49
2019-03-11T21:32:28.519Z,101332.48
2019-03-11T21:34:29.932Z,101327.64
2019-03-11T21:36:31.375Z,101331.46
2019-03-11T21:38:32.800Z,101328.45
2019-03-11T21:40:34.167Z,101329.80
2019-03-11T21:42:37.702Z,101329.88
2019-03-11T21:44:38.887Z,101330.61
2019-03-11T21:46:40.333Z,101333.83
2019-03-11T21:48:41.814Z,101340.70
2019-03-11T21:50:43.336Z,101345.48
2019-03-11T21:52:44.892Z,101338.80
2019-03-11T21:54:47.566Z,101347.34
2019-03-11T21:56:49.317Z,101353.50
2019-03-11T21:58:50.777Z,101358.81
2019-03-11T22:00:52.173Z,101372.97
2019-03-11T22:02:53.644Z,101383.30
2019-03-11T22:04:55.023Z,101400.81
2019-03-11T22:06:56.332Z,101403.61
2019-03-11T22:08:57.739Z,101407.19
2019-03-11T22:10:59.096Z,101408.17
2019-03-11T22:13:00.505Z,101414.31
2019-03-11T22:15:02.562Z,101413.82
2019-03-11T22:17:03.989Z,101420.36
2019-03-11T22:19:05.406Z,101422.61
2019-03-11T22:21:07.936Z,101424.56
2019-03-11T22:23:09.364Z,101427.33
2019-03-11T22:25:14.061Z,101429.55
2019-03-11T22:27:15.687Z,101434.95
2019-03-11T22:29:17.047Z,101437.71
2019-03-11T22:31:18.437Z,101436.63
2019-03-11T22:33:19.936Z,101438.42
2019-03-11T22:35:21.290Z,101444.92
2019-03-11T22:37:22.711Z,101452.73
2019-03-11T22:39:24.116Z,101457.91
2019-03-11T22:41:25.488Z,101457.45
2019-03-11T22:43:26.904Z,101466.53
2019-03-11T22:45:28.285Z,101470.14
2019-03-11T22:47:29.662Z,101475.67
2019-03-11T22:49:30.999Z,101485.38
2019-03-11T22:51:32.406Z,101496.72
2019-03-11T22:53:33.796Z,101497.47
2019-03-11T22:55:35.137Z,101504.45
2019-03-11T22:57:36.530Z,101508.67
2019-03-11T22:59:37.879Z,101515.38
2019-03-11T23:01:39.648Z,101520.56
2019-03-11T23:03:50.502Z,101523.84
2019-03-11T23:05:57.164Z,101523.81
2019-03-11T23:07:47.735Z,101521.47
2019-03-11T23:09:49.107Z,101520.88
2019-03-11T23:11:50.443Z,101523.09
2019-03-11T23:13:52.058Z,101522.94
2019-03-11T23:15:53.424Z,101529.72
2019-03-11T23:17:54.790Z,101534.21
2019-03-11T23:19:56.167Z,101530.97
2019-03-11T23:21:57.502Z,101534.74
2019-03-11T23:23:58.896Z,101539.95
2019-03-11T23:26:00.314Z,101546.94
2019-03-11T23:28:01.654Z,101552.35
2019-03-11T23:30:11.055Z,101561.28
2019-03-11T23:32:12.398Z,101573.44
2019-03-11T23:34:13.771Z,101570.84
2019-03-11T23:36:15.183Z,101575.06
2019-03-11T23:38:16.545Z,101573.92
2019-03-11T23:40:17.942Z,101569.18
2019-03-11T23:42:19.310Z,101574.70
2019-03-11T23:44:20.711Z,101576.33
2019-03-11T23:46:22.322Z,101577.62
2019-03-11T23:48:23.791Z,101572.86
2019-03-11T23:50:25.140Z,101577.78
2019-03-11T23:52:26.489Z,101577.12
2019-03-11T23:54:27.915Z,101579.25
2019-03-11T23:56:29.272Z,101587.61
2019-03-11T23:58:30.659Z,101584.31
